sensor_id;sensor_type;location;lat;lon;timestamp;P1;durP1;ratioP1;P2;durP2;ratioP2
19509;SDS011;9896;42.486;26.506;2023-08-20T00:01:57;13.50;;;9.50;;
19509;SDS011;9896;42.486;26.506;2023-08-20T00:04:26;13.23;;;9.97;;
19509;SDS011;9896;42.486;26.506;2023-08-20T00:06:52;13.90;;;10.17;;
19509;SDS011;9896;42.486;26.506;2023-08-20T00:09:18;13.90;;;9.90;;
19509;SDS011;9896;42.486;26.506;2023-08-20T00:11:43;12.37;;;10.30;;
19509;SDS011;9896;42.486;26.506;2023-08-20T00:14:14;17.97;;;10.63;;
19509;SDS011;9896;42.486;26.506;2023-08-20T00:16:40;18.43;;;10.20;;
19509;SDS011;9896;42.486;26.506;2023-08-20T00:19:06;15.53;;;10.30;;
19509;SDS011;9896;42.486;26.506;2023-08-20T00:21:32;12.40;;;9.23;;
19509;SDS011;9896;42.486;26.506;2023-08-20T00:23:57;15.17;;;10.00;;
19509;SDS011;9896;42.486;26.506;2023-08-20T00:26:22;12.90;;;9.47;;
19509;SDS011;9896;42.486;26.506;2023-08-20T00:28:48;14.10;;;9.97;;
19509;SDS011;9896;42.486;26.506;2023-08-20T00:31:14;17.47;;;10.60;;
19509;SDS011;9896;42.486;26.506;2023-08-20T00:33:39;14.70;;;10.17;;
19509;SDS011;9896;42.486;26.506;2023-08-20T00:36:05;12.67;;;9.27;;
19509;SDS011;9896;42.486;26.506;2023-08-20T00:38:30;16.23;;;10.23;;
19509;SDS011;9896;42.486;26.506;2023-08-20T00:40:55;16.17;;;10.07;;
19509;SDS011;9896;42.486;26.506;2023-08-20T00:43:20;15.40;;;10.57;;
19509;SDS011;9896;42.486;26.506;2023-08-20T00:45:46;13.57;;;10.10;;
19509;SDS011;9896;42.486;26.506;2023-08-20T00:48:11;14.63;;;10.10;;
19509;SDS011;9896;42.486;26.506;2023-08-20T00:50:37;14.10;;;9.70;;
19509;SDS011;9896;42.486;26.506;2023-08-20T00:53:04;18.87;;;10.73;;
19509;SDS011;9896;42.486;26.506;2023-08-20T00:55:29;12.87;;;9.83;;
19509;SDS011;9896;42.486;26.506;2023-08-20T00:57:54;14.23;;;9.83;;
19509;SDS011;9896;42.486;26.506;2023-08-20T01:00:20;21.07;;;10.67;;
19509;SDS011;9896;42.486;26.506;2023-08-20T01:02:46;13.93;;;10.20;;
19509;SDS011;9896;42.486;26.506;2023-08-20T01:05:11;12.30;;;9.90;;
19509;SDS011;9896;42.486;26.506;2023-08-20T01:10:19;13.43;;;9.10;;
19509;SDS011;9896;42.486;26.506;2023-08-20T01:12:47;14.13;;;8.77;;
19509;SDS011;9896;42.486;26.506;2023-08-20T01:15:13;12.37;;;8.80;;
19509;SDS011;9896;42.486;26.506;2023-08-20T01:17:41;12.63;;;9.07;;
19509;SDS011;9896;42.486;26.506;2023-08-20T01:20:07;13.73;;;9.20;;
19509;SDS011;9896;42.486;26.506;2023-08-20T01:30:10;15.50;;;9.53;;
19509;SDS011;9896;42.486;26.506;2023-08-20T01:32:36;11.90;;;8.80;;
19509;SDS011;9896;42.486;26.506;2023-08-20T01:35:02;11.13;;;8.93;;
19509;SDS011;9896;42.486;26.506;2023-08-20T01:37:28;20.23;;;8.33;;
19509;SDS011;9896;42.486;26.506;2023-08-20T01:39:53;14.80;;;8.17;;
19509;SDS011;9896;42.486;26.506;2023-08-20T01:42:19;12.17;;;9.20;;
19509;SDS011;9896;42.486;26.506;2023-08-20T01:44:44;12.80;;;8.97;;
19509;SDS011;9896;42.486;26.506;2023-08-20T01:47:09;16.30;;;9.23;;
19509;SDS011;9896;42.486;26.506;2023-08-20T01:49:35;11.50;;;9.57;;
19509;SDS011;9896;42.486;26.506;2023-08-20T01:52:00;12.03;;;9.43;;
19509;SDS011;9896;42.486;26.506;2023-08-20T01:54:26;15.70;;;9.70;;
19509;SDS011;9896;42.486;26.506;2023-08-20T01:56:51;16.97;;;9.57;;
19509;SDS011;9896;42.486;26.506;2023-08-20T01:59:17;12.47;;;10.47;;
19509;SDS011;9896;42.486;26.506;2023-08-20T02:01:43;16.53;;;9.97;;
19509;SDS011;9896;42.486;26.506;2023-08-20T02:04:08;19.37;;;9.33;;
19509;SDS011;9896;42.486;26.506;2023-08-20T02:06:34;14.23;;;9.20;;
19509;SDS011;9896;42.486;26.506;2023-08-20T02:08:59;11.60;;;9.30;;
19509;SDS011;9896;42.486;26.506;2023-08-20T02:11:25;15.73;;;9.67;;
19509;SDS011;9896;42.486;26.506;2023-08-20T02:13:50;12.20;;;8.77;;
19509;SDS011;9896;42.486;26.506;2023-08-20T02:16:16;12.10;;;8.53;;
19509;SDS011;9896;42.486;26.506;2023-08-20T02:18:42;12.77;;;9.27;;
19509;SDS011;9896;42.486;26.506;2023-08-20T02:21:07;13.53;;;9.90;;
19509;SDS011;9896;42.486;26.506;2023-08-20T02:23:33;12.37;;;9.60;;
19509;SDS011;9896;42.486;26.506;2023-08-20T02:25:58;11.83;;;9.43;;
19509;SDS011;9896;42.486;26.506;2023-08-20T02:28:23;16.20;;;9.17;;
19509;SDS011;9896;42.486;26.506;2023-08-20T02:30:49;16.63;;;9.50;;
19509;SDS011;9896;42.486;26.506;2023-08-20T02:33:14;13.03;;;9.90;;
19509;SDS011;9896;42.486;26.506;2023-08-20T02:35:40;17.53;;;9.87;;
19509;SDS011;9896;42.486;26.506;2023-08-20T02:38:05;12.67;;;10.47;;
19509;SDS011;9896;42.486;26.506;2023-08-20T02:40:31;12.47;;;9.47;;
19509;SDS011;9896;42.486;26.506;2023-08-20T02:42:57;12.07;;;9.60;;
19509;SDS011;9896;42.486;26.506;2023-08-20T02:45:22;15.13;;;9.83;;
19509;SDS011;9896;42.486;26.506;2023-08-20T02:47:48;12.53;;;9.73;;
19509;SDS011;9896;42.486;26.506;2023-08-20T02:50:13;10.60;;;9.37;;
19509;SDS011;9896;42.486;26.506;2023-08-20T02:52:38;11.60;;;9.10;;
19509;SDS011;9896;42.486;26.506;2023-08-20T02:55:04;12.67;;;9.10;;
19509;SDS011;9896;42.486;26.506;2023-08-20T02:57:30;17.77;;;9.90;;
19509;SDS011;9896;42.486;26.506;2023-08-20T02:59:56;16.20;;;10.57;;
19509;SDS011;9896;42.486;26.506;2023-08-20T03:02:21;13.30;;;10.07;;
19509;SDS011;9896;42.486;26.506;2023-08-20T03:04:47;12.93;;;9.53;;
19509;SDS011;9896;42.486;26.506;2023-08-20T03:07:12;16.10;;;9.43;;
19509;SDS011;9896;42.486;26.506;2023-08-20T03:09:38;14.67;;;9.67;;
19509;SDS011;9896;42.486;26.506;2023-08-20T03:12:04;13.63;;;10.30;;
19509;SDS011;9896;42.486;26.506;2023-08-20T03:14:30;14.80;;;10.63;;
19509;SDS011;9896;42.486;26.506;2023-08-20T03:16:55;13.67;;;9.57;;
19509;SDS011;9896;42.486;26.506;2023-08-20T03:19:21;14.07;;;9.70;;
19509;SDS011;9896;42.486;26.506;2023-08-20T03:21:46;13.17;;;9.07;;
19509;SDS011;9896;42.486;26.506;2023-08-20T03:24:12;13.80;;;9.83;;
19509;SDS011;9896;42.486;26.506;2023-08-20T03:26:37;14.60;;;10.50;;
19509;SDS011;9896;42.486;26.506;2023-08-20T03:29:03;13.70;;;9.70;;
19509;SDS011;9896;42.486;26.506;2023-08-20T03:31:28;14.67;;;10.00;;
19509;SDS011;9896;42.486;26.506;2023-08-20T03:33:54;13.93;;;9.93;;
19509;SDS011;9896;42.486;26.506;2023-08-20T03:36:19;17.67;;;10.40;;
19509;SDS011;9896;42.486;26.506;2023-08-20T03:38:44;15.37;;;10.07;;
19509;SDS011;9896;42.486;26.506;2023-08-20T03:41:10;13.07;;;9.77;;
19509;SDS011;9896;42.486;26.506;2023-08-20T03:43:35;12.90;;;10.00;;
19509;SDS011;9896;42.486;26.506;2023-08-20T03:46:01;12.53;;;9.97;;
19509;SDS011;9896;42.486;26.506;2023-08-20T03:48:26;13.17;;;10.30;;
19509;SDS011;9896;42.486;26.506;2023-08-20T03:50:52;14.27;;;10.00;;
19509;SDS011;9896;42.486;26.506;2023-08-20T03:53:17;15.17;;;10.27;;
19509;SDS011;9896;42.486;26.506;2023-08-20T03:55:47;13.00;;;10.20;;
19509;SDS011;9896;42.486;26.506;2023-08-20T03:58:12;13.53;;;9.83;;
19509;SDS011;9896;42.486;26.506;2023-08-20T04:00:38;15.20;;;9.23;;
19509;SDS011;9896;42.486;26.506;2023-08-20T04:03:03;12.87;;;10.07;;
19509;SDS011;9896;42.486;26.506;2023-08-20T04:05:29;11.77;;;9.47;;
19509;SDS011;9896;42.486;26.506;2023-08-20T04:07:54;13.93;;;9.40;;
19509;SDS011;9896;42.486;26.506;2023-08-20T04:10:19;20.10;;;10.53;;
19509;SDS011;9896;42.486;26.506;2023-08-20T04:12:45;14.87;;;9.47;;
19509;SDS011;9896;42.486;26.506;2023-08-20T04:15:10;13.53;;;9.53;;
19509;SDS011;9896;42.486;26.506;2023-08-20T04:17:36;15.87;;;9.53;;
19509;SDS011;9896;42.486;26.506;2023-08-20T04:20:01;12.97;;;10.30;;
19509;SDS011;9896;42.486;26.506;2023-08-20T04:22:27;19.13;;;9.97;;
19509;SDS011;9896;42.486;26.506;2023-08-20T04:24:55;11.67;;;9.63;;
19509;SDS011;9896;42.486;26.506;2023-08-20T04:27:21;14.40;;;9.20;;
19509;SDS011;9896;42.486;26.506;2023-08-20T04:29:46;16.77;;;9.70;;
19509;SDS011;9896;42.486;26.506;2023-08-20T04:32:11;13.77;;;10.07;;
19509;SDS011;9896;42.486;26.506;2023-08-20T04:34:37;11.23;;;9.77;;
19509;SDS011;9896;42.486;26.506;2023-08-20T04:37:02;15.80;;;10.53;;
19509;SDS011;9896;42.486;26.506;2023-08-20T04:39:27;14.87;;;10.23;;
19509;SDS011;9896;42.486;26.506;2023-08-20T04:41:53;13.83;;;10.70;;
19509;SDS011;9896;42.486;26.506;2023-08-20T04:44:18;16.73;;;10.73;;
19509;SDS011;9896;42.486;26.506;2023-08-20T04:46:44;14.37;;;10.83;;
19509;SDS011;9896;42.486;26.506;2023-08-20T04:49:09;19.70;;;11.47;;
19509;SDS011;9896;42.486;26.506;2023-08-20T04:51:34;12.67;;;10.77;;
19509;SDS011;9896;42.486;26.506;2023-08-20T04:54:00;14.43;;;9.97;;
19509;SDS011;9896;42.486;26.506;2023-08-20T04:56:25;16.57;;;9.63;;
19509;SDS011;9896;42.486;26.506;2023-08-20T04:58:51;12.50;;;9.43;;
19509;SDS011;9896;42.486;26.506;2023-08-20T05:01:16;14.73;;;9.63;;
19509;SDS011;9896;42.486;26.506;2023-08-20T05:03:41;16.47;;;9.43;;
19509;SDS011;9896;42.486;26.506;2023-08-20T05:06:07;13.07;;;9.97;;
19509;SDS011;9896;42.486;26.506;2023-08-20T05:08:32;13.37;;;9.70;;
19509;SDS011;9896;42.486;26.506;2023-08-20T05:10:57;17.00;;;10.53;;
19509;SDS011;9896;42.486;26.506;2023-08-20T05:13:23;15.43;;;9.90;;
19509;SDS011;9896;42.486;26.506;2023-08-20T05:15:49;12.37;;;9.20;;
19509;SDS011;9896;42.486;26.506;2023-08-20T05:18:14;13.13;;;9.23;;
19509;SDS011;9896;42.486;26.506;2023-08-20T05:20:40;14.53;;;9.07;;
19509;SDS011;9896;42.486;26.506;2023-08-20T05:23:05;10.83;;;8.70;;
19509;SDS011;9896;42.486;26.506;2023-08-20T05:25:31;13.40;;;8.87;;
19509;SDS011;9896;42.486;26.506;2023-08-20T05:27:56;13.77;;;9.30;;
19509;SDS011;9896;42.486;26.506;2023-08-20T05:30:21;13.50;;;8.87;;
19509;SDS011;9896;42.486;26.506;2023-08-20T05:32:46;11.73;;;8.07;;
19509;SDS011;9896;42.486;26.506;2023-08-20T05:35:12;16.43;;;8.70;;
19509;SDS011;9896;42.486;26.506;2023-08-20T05:37:37;11.83;;;8.80;;
19509;SDS011;9896;42.486;26.506;2023-08-20T05:40:03;12.83;;;8.60;;
19509;SDS011;9896;42.486;26.506;2023-08-20T05:42:28;14.93;;;8.47;;
19509;SDS011;9896;42.486;26.506;2023-08-20T05:44:53;13.55;;;8.35;;
19509;SDS011;9896;42.486;26.506;2023-08-20T05:47:19;12.70;;;8.20;;
19509;SDS011;9896;42.486;26.506;2023-08-20T05:49:44;13.02;;;9.85;;
19509;SDS011;9896;42.486;26.506;2023-08-20T05:52:10;12.52;;;9.23;;
19509;SDS011;9896;42.486;26.506;2023-08-20T05:54:35;13.63;;;8.38;;
19509;SDS011;9896;42.486;26.506;2023-08-20T05:57:00;11.38;;;8.80;;
19509;SDS011;9896;42.486;26.506;2023-08-20T05:59:27;11.35;;;8.20;;
19509;SDS011;9896;42.486;26.506;2023-08-20T06:01:52;8.23;;;7.38;;
19509;SDS011;9896;42.486;26.506;2023-08-20T06:04:18;11.95;;;8.10;;
19509;SDS011;9896;42.486;26.506;2023-08-20T06:06:44;10.60;;;8.70;;
19509;SDS011;9896;42.486;26.506;2023-08-20T06:09:09;17.10;;;9.48;;
19509;SDS011;9896;42.486;26.506;2023-08-20T06:11:35;13.43;;;8.35;;
19509;SDS011;9896;42.486;26.506;2023-08-20T06:14:00;12.65;;;8.00;;
19509;SDS011;9896;42.486;26.506;2023-08-20T06:16:26;10.85;;;7.63;;
19509;SDS011;9896;42.486;26.506;2023-08-20T06:18:51;12.90;;;7.85;;
19509;SDS011;9896;42.486;26.506;2023-08-20T06:21:16;11.20;;;8.00;;
19509;SDS011;9896;42.486;26.506;2023-08-20T06:23:42;13.55;;;8.43;;
19509;SDS011;9896;42.486;26.506;2023-08-20T06:26:07;12.52;;;7.40;;
19509;SDS011;9896;42.486;26.506;2023-08-20T06:28:32;10.68;;;7.35;;
19509;SDS011;9896;42.486;26.506;2023-08-20T06:30:58;11.43;;;7.10;;
19509;SDS011;9896;42.486;26.506;2023-08-20T06:33:23;9.57;;;7.47;;
19509;SDS011;9896;42.486;26.506;2023-08-20T06:35:49;11.15;;;6.80;;
19509;SDS011;9896;42.486;26.506;2023-08-20T06:38:14;8.18;;;6.80;;
19509;SDS011;9896;42.486;26.506;2023-08-20T06:40:39;8.82;;;7.40;;
19509;SDS011;9896;42.486;26.506;2023-08-20T06:43:05;12.13;;;7.43;;
19509;SDS011;9896;42.486;26.506;2023-08-20T06:45:30;8.93;;;7.00;;
19509;SDS011;9896;42.486;26.506;2023-08-20T06:47:56;10.63;;;6.90;;
19509;SDS011;9896;42.486;26.506;2023-08-20T06:50:22;7.65;;;6.15;;
19509;SDS011;9896;42.486;26.506;2023-08-20T06:52:48;10.88;;;7.55;;
19509;SDS011;9896;42.486;26.506;2023-08-20T06:55:13;11.93;;;6.47;;
19509;SDS011;9896;42.486;26.506;2023-08-20T06:57:39;10.00;;;5.82;;
19509;SDS011;9896;42.486;26.506;2023-08-20T07:00:04;9.70;;;5.70;;
19509;SDS011;9896;42.486;26.506;2023-08-20T07:02:30;8.05;;;6.38;;
19509;SDS011;9896;42.486;26.506;2023-08-20T07:04:56;9.68;;;6.30;;
19509;SDS011;9896;42.486;26.506;2023-08-20T07:07:21;7.75;;;5.82;;
19509;SDS011;9896;42.486;26.506;2023-08-20T07:09:47;13.18;;;6.90;;
19509;SDS011;9896;42.486;26.506;2023-08-20T07:12:12;10.27;;;6.10;;
19509;SDS011;9896;42.486;26.506;2023-08-20T07:14:38;12.70;;;6.97;;
19509;SDS011;9896;42.486;26.506;2023-08-20T07:17:03;9.38;;;6.15;;
19509;SDS011;9896;42.486;26.506;2023-08-20T07:19:30;13.55;;;6.15;;
19509;SDS011;9896;42.486;26.506;2023-08-20T07:21:55;10.48;;;5.63;;
19509;SDS011;9896;42.486;26.506;2023-08-20T07:24:21;10.20;;;5.30;;
19509;SDS011;9896;42.486;26.506;2023-08-20T07:26:53;9.05;;;5.45;;
19509;SDS011;9896;42.486;26.506;2023-08-20T07:29:24;13.55;;;5.57;;
19509;SDS011;9896;42.486;26.506;2023-08-20T07:31:50;7.40;;;4.90;;
19509;SDS011;9896;42.486;26.506;2023-08-20T07:34:15;9.73;;;4.60;;
19509;SDS011;9896;42.486;26.506;2023-08-20T07:36:41;9.32;;;5.30;;
19509;SDS011;9896;42.486;26.506;2023-08-20T07:39:06;7.55;;;5.38;;
19509;SDS011;9896;42.486;26.506;2023-08-20T07:41:31;8.52;;;4.93;;
19509;SDS011;9896;42.486;26.506;2023-08-20T07:43:57;10.88;;;5.80;;
19509;SDS011;9896;42.486;26.506;2023-08-20T07:46:22;7.80;;;5.22;;
19509;SDS011;9896;42.486;26.506;2023-08-20T07:48:48;6.85;;;5.03;;
19509;SDS011;9896;42.486;26.506;2023-08-20T07:51:13;7.50;;;5.18;;
19509;SDS011;9896;42.486;26.506;2023-08-20T07:53:39;7.40;;;5.43;;
19509;SDS011;9896;42.486;26.506;2023-08-20T07:56:04;10.20;;;4.88;;
19509;SDS011;9896;42.486;26.506;2023-08-20T07:58:29;9.07;;;5.72;;
19509;SDS011;9896;42.486;26.506;2023-08-20T08:00:55;7.28;;;4.97;;
19509;SDS011;9896;42.486;26.506;2023-08-20T08:03:20;11.77;;;5.70;;
19509;SDS011;9896;42.486;26.506;2023-08-20T08:05:49;6.35;;;5.40;;
19509;SDS011;9896;42.486;26.506;2023-08-20T08:08:18;7.80;;;5.65;;
19509;SDS011;9896;42.486;26.506;2023-08-20T08:10:44;7.63;;;5.68;;
19509;SDS011;9896;42.486;26.506;2023-08-20T08:13:11;10.35;;;5.53;;
19509;SDS011;9896;42.486;26.506;2023-08-20T08:15:36;9.32;;;5.60;;
19509;SDS011;9896;42.486;26.506;2023-08-20T08:18:02;8.57;;;6.03;;
19509;SDS011;9896;42.486;26.506;2023-08-20T08:20:27;12.60;;;6.97;;
19509;SDS011;9896;42.486;26.506;2023-08-20T08:22:53;8.52;;;5.57;;
19509;SDS011;9896;42.486;26.506;2023-08-20T08:25:18;9.52;;;6.03;;
19509;SDS011;9896;42.486;26.506;2023-08-20T08:27:44;8.48;;;5.63;;
19509;SDS011;9896;42.486;26.506;2023-08-20T08:30:10;7.53;;;5.38;;
19509;SDS011;9896;42.486;26.506;2023-08-20T08:32:35;8.30;;;4.85;;
19509;SDS011;9896;42.486;26.506;2023-08-20T08:35:01;7.57;;;6.22;;
19509;SDS011;9896;42.486;26.506;2023-08-20T08:37:26;12.10;;;5.90;;
19509;SDS011;9896;42.486;26.506;2023-08-20T08:39:51;14.35;;;5.47;;
19509;SDS011;9896;42.486;26.506;2023-08-20T08:42:17;7.45;;;4.80;;
19509;SDS011;9896;42.486;26.506;2023-08-20T08:44:44;10.35;;;5.43;;
19509;SDS011;9896;42.486;26.506;2023-08-20T08:47:10;10.52;;;5.40;;
19509;SDS011;9896;42.486;26.506;2023-08-20T08:49:36;10.55;;;5.60;;
19509;SDS011;9896;42.486;26.506;2023-08-20T08:52:03;9.25;;;5.05;;
19509;SDS011;9896;42.486;26.506;2023-08-20T08:54:28;7.70;;;5.30;;
19509;SDS011;9896;42.486;26.506;2023-08-20T08:56:55;8.25;;;5.22;;
19509;SDS011;9896;42.486;26.506;2023-08-20T08:59:21;11.18;;;5.47;;
19509;SDS011;9896;42.486;26.506;2023-08-20T09:01:46;10.13;;;5.55;;
19509;SDS011;9896;42.486;26.506;2023-08-20T09:04:12;8.23;;;5.50;;
19509;SDS011;9896;42.486;26.506;2023-08-20T09:06:47;9.25;;;5.10;;
19509;SDS011;9896;42.486;26.506;2023-08-20T09:09:12;10.00;;;5.45;;
19509;SDS011;9896;42.486;26.506;2023-08-20T09:11:38;6.00;;;5.05;;
19509;SDS011;9896;42.486;26.506;2023-08-20T09:14:03;11.00;;;5.00;;
19509;SDS011;9896;42.486;26.506;2023-08-20T09:16:32;7.70;;;5.25;;
19509;SDS011;9896;42.486;26.506;2023-08-20T09:19:00;7.03;;;4.97;;
19509;SDS011;9896;42.486;26.506;2023-08-20T09:21:27;7.97;;;4.38;;
19509;SDS011;9896;42.486;26.506;2023-08-20T09:23:58;7.63;;;5.15;;
19509;SDS011;9896;42.486;26.506;2023-08-20T09:26:27;11.10;;;4.97;;
19509;SDS011;9896;42.486;26.506;2023-08-20T09:28:54;8.02;;;4.78;;
19509;SDS011;9896;42.486;26.506;2023-08-20T09:31:20;11.60;;;4.47;;
19509;SDS011;9896;42.486;26.506;2023-08-20T09:33:48;8.73;;;4.75;;
19509;SDS011;9896;42.486;26.506;2023-08-20T09:36:14;12.73;;;5.10;;
19509;SDS011;9896;42.486;26.506;2023-08-20T09:38:39;5.65;;;4.93;;
19509;SDS011;9896;42.486;26.506;2023-08-20T09:41:05;10.95;;;5.07;;
19509;SDS011;9896;42.486;26.506;2023-08-20T09:43:33;8.25;;;4.63;;
19509;SDS011;9896;42.486;26.506;2023-08-20T09:46:02;8.13;;;5.40;;
19509;SDS011;9896;42.486;26.506;2023-08-20T09:48:29;20.23;;;5.32;;
19509;SDS011;9896;42.486;26.506;2023-08-20T09:50:58;11.52;;;5.47;;
19509;SDS011;9896;42.486;26.506;2023-08-20T09:53:35;7.88;;;4.93;;
19509;SDS011;9896;42.486;26.506;2023-08-20T09:56:17;9.63;;;5.32;;
19509;SDS011;9896;42.486;26.506;2023-08-20T09:58:45;11.95;;;5.60;;
19509;SDS011;9896;42.486;26.506;2023-08-20T10:01:12;6.30;;;5.03;;
19509;SDS011;9896;42.486;26.506;2023-08-20T10:03:37;9.15;;;5.00;;
19509;SDS011;9896;42.486;26.506;2023-08-20T10:06:04;9.55;;;5.43;;
19509;SDS011;9896;42.486;26.506;2023-08-20T10:08:31;7.25;;;5.07;;
19509;SDS011;9896;42.486;26.506;2023-08-20T10:10:57;12.68;;;6.30;;
19509;SDS011;9896;42.486;26.506;2023-08-20T10:13:22;9.43;;;5.70;;
19509;SDS011;9896;42.486;26.506;2023-08-20T10:15:48;10.50;;;5.55;;
19509;SDS011;9896;42.486;26.506;2023-08-20T10:18:13;10.38;;;6.07;;
19509;SDS011;9896;42.486;26.506;2023-08-20T10:20:39;9.73;;;5.88;;
19509;SDS011;9896;42.486;26.506;2023-08-20T10:23:07;11.82;;;5.78;;
19509;SDS011;9896;42.486;26.506;2023-08-20T10:25:39;9.88;;;6.05;;
19509;SDS011;9896;42.486;26.506;2023-08-20T10:28:39;10.35;;;6.35;;
19509;SDS011;9896;42.486;26.506;2023-08-20T10:33:29;7.85;;;5.57;;
19509;SDS011;9896;42.486;26.506;2023-08-20T10:35:55;15.13;;;6.25;;
19509;SDS011;9896;42.486;26.506;2023-08-20T10:38:20;11.50;;;6.40;;
19509;SDS011;9896;42.486;26.506;2023-08-20T10:43:23;9.80;;;6.40;;
19509;SDS011;9896;42.486;26.506;2023-08-20T10:46:01;11.02;;;6.20;;
19509;SDS011;9896;42.486;26.506;2023-08-20T10:48:27;8.80;;;5.90;;
19509;SDS011;9896;42.486;26.506;2023-08-20T10:50:52;9.18;;;5.60;;
19509;SDS011;9896;42.486;26.506;2023-08-20T10:53:18;11.23;;;6.43;;
19509;SDS011;9896;42.486;26.506;2023-08-20T10:55:49;16.42;;;6.75;;
19509;SDS011;9896;42.486;26.506;2023-08-20T10:58:15;10.02;;;6.40;;
19509;SDS011;9896;42.486;26.506;2023-08-20T11:00:42;13.90;;;6.65;;
19509;SDS011;9896;42.486;26.506;2023-08-20T11:03:08;14.50;;;6.53;;
19509;SDS011;9896;42.486;26.506;2023-08-20T11:05:33;9.38;;;5.85;;
19509;SDS011;9896;42.486;26.506;2023-08-20T11:07:59;8.23;;;5.85;;
19509;SDS011;9896;42.486;26.506;2023-08-20T11:10:25;7.05;;;6.10;;
19509;SDS011;9896;42.486;26.506;2023-08-20T11:12:50;8.70;;;6.25;;
19509;SDS011;9896;42.486;26.506;2023-08-20T11:15:16;11.45;;;5.57;;
19509;SDS011;9896;42.486;26.506;2023-08-20T11:17:42;9.65;;;5.45;;
19509;SDS011;9896;42.486;26.506;2023-08-20T11:20:08;5.90;;;5.40;;
19509;SDS011;9896;42.486;26.506;2023-08-20T11:22:33;8.82;;;5.28;;
19509;SDS011;9896;42.486;26.506;2023-08-20T11:24:59;5.32;;;4.70;;
19509;SDS011;9896;42.486;26.506;2023-08-20T11:27:27;11.70;;;5.30;;
19509;SDS011;9896;42.486;26.506;2023-08-20T11:29:53;8.68;;;4.88;;
19509;SDS011;9896;42.486;26.506;2023-08-20T11:32:21;7.25;;;4.90;;
19509;SDS011;9896;42.486;26.506;2023-08-20T11:34:46;12.25;;;5.07;;
19509;SDS011;9896;42.486;26.506;2023-08-20T11:37:12;10.27;;;4.97;;
19509;SDS011;9896;42.486;26.506;2023-08-20T11:39:37;7.53;;;5.28;;
19509;SDS011;9896;42.486;26.506;2023-08-20T11:42:03;8.02;;;4.78;;
19509;SDS011;9896;42.486;26.506;2023-08-20T11:44:28;6.55;;;4.90;;
19509;SDS011;9896;42.486;26.506;2023-08-20T11:47:15;9.57;;;5.05;;
19509;SDS011;9896;42.486;26.506;2023-08-20T11:49:41;8.55;;;5.30;;
19509;SDS011;9896;42.486;26.506;2023-08-20T11:52:06;8.10;;;4.75;;
19509;SDS011;9896;42.486;26.506;2023-08-20T11:54:32;8.40;;;4.88;;
19509;SDS011;9896;42.486;26.506;2023-08-20T11:57:01;8.02;;;4.18;;
19509;SDS011;9896;42.486;26.506;2023-08-20T11:59:27;7.55;;;4.70;;
19509;SDS011;9896;42.486;26.506;2023-08-20T12:02:02;6.65;;;5.15;;
19509;SDS011;9896;42.486;26.506;2023-08-20T12:04:30;10.40;;;4.90;;
19509;SDS011;9896;42.486;26.506;2023-08-20T12:09:28;6.10;;;4.70;;
19509;SDS011;9896;42.486;26.506;2023-08-20T12:11:54;7.88;;;5.03;;
19509;SDS011;9896;42.486;26.506;2023-08-20T12:14:21;6.75;;;4.72;;
19509;SDS011;9896;42.486;26.506;2023-08-20T12:16:46;12.27;;;5.60;;
19509;SDS011;9896;42.486;26.506;2023-08-20T12:19:12;8.90;;;4.85;;
19509;SDS011;9896;42.486;26.506;2023-08-20T12:21:38;6.45;;;4.75;;
19509;SDS011;9896;42.486;26.506;2023-08-20T12:24:04;7.40;;;5.10;;
19509;SDS011;9896;42.486;26.506;2023-08-20T12:26:30;11.35;;;5.40;;
19509;SDS011;9896;42.486;26.506;2023-08-20T12:28:55;7.03;;;5.35;;
19509;SDS011;9896;42.486;26.506;2023-08-20T12:31:21;6.38;;;4.65;;
19509;SDS011;9896;42.486;26.506;2023-08-20T12:33:46;6.40;;;4.63;;
19509;SDS011;9896;42.486;26.506;2023-08-20T12:36:11;7.28;;;5.20;;
19509;SDS011;9896;42.486;26.506;2023-08-20T12:38:37;8.18;;;4.70;;
19509;SDS011;9896;42.486;26.506;2023-08-20T12:41:02;7.22;;;4.95;;
19509;SDS011;9896;42.486;26.506;2023-08-20T12:43:29;5.57;;;4.40;;
19509;SDS011;9896;42.486;26.506;2023-08-20T12:45:55;7.22;;;4.72;;
19509;SDS011;9896;42.486;26.506;2023-08-20T12:48:20;6.57;;;4.43;;
19509;SDS011;9896;42.486;26.506;2023-08-20T12:50:45;10.63;;;5.07;;
19509;SDS011;9896;42.486;26.506;2023-08-20T12:53:11;5.22;;;4.72;;
19509;SDS011;9896;42.486;26.506;2023-08-20T12:55:38;7.07;;;4.75;;
19509;SDS011;9896;42.486;26.506;2023-08-20T12:58:03;8.18;;;5.00;;
19509;SDS011;9896;42.486;26.506;2023-08-20T13:00:28;9.48;;;4.70;;
19509;SDS011;9896;42.486;26.506;2023-08-20T13:02:54;8.82;;;5.43;;
19509;SDS011;9896;42.486;26.506;2023-08-20T13:05:20;6.50;;;4.57;;
19509;SDS011;9896;42.486;26.506;2023-08-20T13:07:46;10.40;;;4.85;;
19509;SDS011;9896;42.486;26.506;2023-08-20T13:10:11;7.13;;;4.90;;
19509;SDS011;9896;42.486;26.506;2023-08-20T13:12:37;6.00;;;5.40;;
19509;SDS011;9896;42.486;26.506;2023-08-20T13:15:05;8.82;;;5.03;;
19509;SDS011;9896;42.486;26.506;2023-08-20T13:17:31;6.93;;;4.30;;
19509;SDS011;9896;42.486;26.506;2023-08-20T13:19:56;7.30;;;4.82;;
19509;SDS011;9896;42.486;26.506;2023-08-20T13:22:22;10.13;;;4.35;;
19509;SDS011;9896;42.486;26.506;2023-08-20T13:24:47;10.35;;;5.15;;
19509;SDS011;9896;42.486;26.506;2023-08-20T13:27:13;11.77;;;4.70;;
19509;SDS011;9896;42.486;26.506;2023-08-20T13:29:40;9.43;;;4.85;;
19509;SDS011;9896;42.486;26.506;2023-08-20T13:32:05;8.00;;;4.95;;
19509;SDS011;9896;42.486;26.506;2023-08-20T13:34:31;5.75;;;5.20;;
19509;SDS011;9896;42.486;26.506;2023-08-20T13:36:56;7.70;;;4.80;;
19509;SDS011;9896;42.486;26.506;2023-08-20T13:39:22;8.20;;;5.22;;
19509;SDS011;9896;42.486;26.506;2023-08-20T13:41:48;7.15;;;4.80;;
19509;SDS011;9896;42.486;26.506;2023-08-20T13:44:14;9.75;;;5.18;;
19509;SDS011;9896;42.486;26.506;2023-08-20T13:46:39;9.93;;;4.55;;
19509;SDS011;9896;42.486;26.506;2023-08-20T13:49:04;8.23;;;4.80;;
19509;SDS011;9896;42.486;26.506;2023-08-20T13:51:30;8.20;;;4.32;;
19509;SDS011;9896;42.486;26.506;2023-08-20T13:53:55;7.63;;;5.38;;
19509;SDS011;9896;42.486;26.506;2023-08-20T13:56:21;5.68;;;4.68;;
19509;SDS011;9896;42.486;26.506;2023-08-20T13:58:46;8.13;;;4.80;;
19509;SDS011;9896;42.486;26.506;2023-08-20T14:01:11;6.57;;;5.10;;
19509;SDS011;9896;42.486;26.506;2023-08-20T14:03:38;5.72;;;4.40;;
19509;SDS011;9896;42.486;26.506;2023-08-20T14:06:04;7.50;;;4.47;;
19509;SDS011;9896;42.486;26.506;2023-08-20T14:08:29;7.63;;;4.35;;
19509;SDS011;9896;42.486;26.506;2023-08-20T14:10:54;8.20;;;3.97;;
19509;SDS011;9896;42.486;26.506;2023-08-20T14:13:20;6.53;;;3.88;;
19509;SDS011;9896;42.486;26.506;2023-08-20T14:15:45;6.32;;;3.53;;
19509;SDS011;9896;42.486;26.506;2023-08-20T14:18:11;7.78;;;3.80;;
19509;SDS011;9896;42.486;26.506;2023-08-20T14:20:36;4.45;;;3.13;;
19509;SDS011;9896;42.486;26.506;2023-08-20T14:23:02;4.93;;;2.90;;
19509;SDS011;9896;42.486;26.506;2023-08-20T14:25:27;4.35;;;3.20;;
19509;SDS011;9896;42.486;26.506;2023-08-20T14:27:52;9.23;;;3.10;;
19509;SDS011;9896;42.486;26.506;2023-08-20T14:30:18;5.25;;;3.40;;
19509;SDS011;9896;42.486;26.506;2023-08-20T14:32:43;5.82;;;3.38;;
19509;SDS011;9896;42.486;26.506;2023-08-20T14:35:09;6.65;;;2.72;;
19509;SDS011;9896;42.486;26.506;2023-08-20T14:37:35;4.57;;;2.90;;
19509;SDS011;9896;42.486;26.506;2023-08-20T14:40:00;3.83;;;3.05;;
19509;SDS011;9896;42.486;26.506;2023-08-20T14:42:26;6.63;;;3.05;;
19509;SDS011;9896;42.486;26.506;2023-08-20T14:44:51;7.65;;;3.05;;
19509;SDS011;9896;42.486;26.506;2023-08-20T14:47:19;3.65;;;2.83;;
19509;SDS011;9896;42.486;26.506;2023-08-20T14:49:44;7.60;;;2.30;;